sensor_id;sensor_type;location;lat;lon;timestamp;pressure;altitude;pressure_sealevel;temperature;humidity
56038;BME280;41907;47.848;9.000;2023-04-29T00:00:41;95577.03;;;14.27;100.00
56038;BME280;41907;47.848;9.000;2023-04-29T00:03:07;95577.81;;;14.27;100.00
56038;BME280;41907;47.848;9.000;2023-04-29T00:05:32;95582.72;;;14.25;100.00
56038;BME280;41907;47.848;9.000;2023-04-29T00:07:57;95581.50;;;14.23;100.00
56038;BME280;41907;47.848;9.000;2023-04-29T00:10:22;95587.34;;;14.25;100.00
56038;BME280;41907;47.848;9.000;2023-04-29T00:12:48;95582.72;;;14.25;100.00
56038;BME280;41907;47.848;9.000;2023-04-29T00:15:15;95578.50;;;14.24;100.00
56038;BME280;41907;47.848;9.000;2023-04-29T00:17:40;95580.41;;;14.24;100.00
56038;BME280;41907;47.848;9.000;2023-04-29T00:20:06;95579.94;;;14.22;100.00
56038;BME280;41907;47.848;9.000;2023-04-29T00:22:32;95579.94;;;14.22;100.00
56038;BME280;41907;47.848;9.000;2023-04-29T00:24:57;95567.78;;;14.24;100.00
56038;BME280;41907;47.848;9.000;2023-04-29T00:27:22;95574.56;;;14.22;100.00
56038;BME280;41907;47.848;9.000;2023-04-29T00:29:47;95571.09;;;14.21;100.00
56038;BME280;41907;47.848;9.000;2023-04-29T00:32:13;95565.63;;;14.18;100.00
56038;BME280;41907;47.848;9.000;2023-04-29T00:34:38;95564.75;;;14.13;100.00
56038;BME280;41907;47.848;9.000;2023-04-29T00:37:03;95569.19;;;14.09;100.00
56038;BME280;41907;47.848;9.000;2023-04-29T00:39:28;95563.72;;;14.06;100.00
56038;BME280;41907;47.848;9.000;2023-04-29T00:41:54;95570.19;;;14.05;100.00
56038;BME280;41907;47.848;9.000;2023-04-29T00:44:19;95572.44;;;14.03;100.00
56038;BME280;41907;47.848;9.000;2023-04-29T00:46:44;95571.19;;;14.00;100.00
56038;BME280;41907;47.848;9.000;2023-04-29T00:49:10;95563.47;;;13.99;100.00
56038;BME280;41907;47.848;9.000;2023-04-29T00:51:36;95570.06;;;14.01;100.00
56038;BME280;41907;47.848;9.000;2023-04-29T00:54:04;95566.28;;;14.02;100.00
56038;BME280;41907;47.848;9.000;2023-04-29T00:56:31;95566.41;;;14.06;100.00
56038;BME280;41907;47.848;9.000;2023-04-29T00:58:57;95572.19;;;14.08;100.00
56038;BME280;41907;47.848;9.000;2023-04-29T01:01:23;95570.19;;;14.05;100.00
56038;BME280;41907;47.848;9.000;2023-04-29T01:03:49;95561.03;;;14.06;100.00
56038;BME280;41907;47.848;9.000;2023-04-29T01:09:05;95561.03;;;14.06;100.00
56038;BME280;41907;47.848;9.000;2023-04-29T01:11:41;95562.94;;;14.05;100.00
56038;BME280;41907;47.848;9.000;2023-04-29T01:14:10;95567.16;;;14.06;100.00
56038;BME280;41907;47.848;9.000;2023-04-29T01:16:38;95563.38;;;14.07;100.00
56038;BME280;41907;47.848;9.000;2023-04-29T01:19:09;95568.63;;;14.04;100.00
56038;BME280;41907;47.848;9.000;2023-04-29T01:21:46;95567.53;;;14.05;100.00
56038;BME280;41907;47.848;9.000;2023-04-29T01:24:12;95566.28;;;14.02;100.00
56038;BME280;41907;47.848;9.000;2023-04-29T01:26:38;95572.88;;;14.05;100.00
56038;BME280;41907;47.848;9.000;2023-04-29T01:29:21;95570.41;;;14.00;100.00
56038;BME280;41907;47.848;9.000;2023-04-29T01:31:50;95561.56;;;13.99;100.00
56038;BME280;41907;47.848;9.000;2023-04-29T01:34:52;95560.78;;;13.99;100.00
56038;BME280;41907;47.848;9.000;2023-04-29T01:44:56;95545.59;;;13.91;100.00
56038;BME280;41907;47.848;9.000;2023-04-29T01:47:24;95552.50;;;13.92;100.00
56038;BME280;41907;47.848;9.000;2023-04-29T01:49:51;95555.97;;;13.92;100.00
56038;BME280;41907;47.848;9.000;2023-04-29T01:52:16;95556.19;;;13.87;100.00
56038;BME280;41907;47.848;9.000;2023-04-29T01:54:42;95559.22;;;13.86;100.00
56038;BME280;41907;47.848;9.000;2023-04-29T01:57:07;95561.31;;;13.80;100.00
56038;BME280;41907;47.848;9.000;2023-04-29T01:59:32;95562.41;;;13.79;100.00
56038;BME280;41907;47.848;9.000;2023-04-29T02:01:57;95559.41;;;13.81;100.00
56038;BME280;41907;47.848;9.000;2023-04-29T02:04:23;95561.75;;;13.82;100.00
56038;BME280;41907;47.848;9.000;2023-04-29T02:06:49;95562.09;;;13.81;100.00
56038;BME280;41907;47.848;9.000;2023-04-29T02:09:14;95557.50;;;13.81;100.00
56038;BME280;41907;47.848;9.000;2023-04-29T02:11:39;95555.28;;;13.83;100.00
56038;BME280;41907;47.848;9.000;2023-04-29T02:14:04;95560.97;;;13.82;100.00
56038;BME280;41907;47.848;9.000;2023-04-29T02:16:30;95557.19;;;13.83;100.00
56038;BME280;41907;47.848;9.000;2023-04-29T02:18:55;95565.69;;;13.85;100.00
56038;BME280;41907;47.848;9.000;2023-04-29T02:21:20;95566.81;;;13.84;100.00
56038;BME280;41907;47.848;9.000;2023-04-29T02:23:46;95568.25;;;13.81;100.00
56038;BME280;41907;47.848;9.000;2023-04-29T02:26:11;95562.41;;;13.79;100.00
56038;BME280;41907;47.848;9.000;2023-04-29T02:28:37;95568.13;;;13.77;100.00
56038;BME280;41907;47.848;9.000;2023-04-29T02:31:03;95559.31;;;13.77;100.00
56038;BME280;41907;47.848;9.000;2023-04-29T02:33:28;95554.28;;;13.75;100.00
56038;BME280;41907;47.848;9.000;2023-04-29T02:35:53;95561.53;;;13.75;100.00
56038;BME280;41907;47.848;9.000;2023-04-29T02:38:19;95557.94;;;13.71;100.00
56038;BME280;41907;47.848;9.000;2023-04-29T02:40:45;95553.03;;;13.73;100.00
56038;BME280;41907;47.848;9.000;2023-04-29T02:43:10;95556.50;;;13.73;100.00
56038;BME280;41907;47.848;9.000;2023-04-29T02:45:36;95557.59;;;13.72;100.00
56038;BME280;41907;47.848;9.000;2023-04-29T02:48:02;95556.19;;;13.75;100.00
56038;BME280;41907;47.848;9.000;2023-04-29T02:50:28;95552.91;;;13.69;100.00
56038;BME280;41907;47.848;9.000;2023-04-29T02:52:53;95553.25;;;13.68;100.00
56038;BME280;41907;47.848;9.000;2023-04-29T02:55:18;95551.00;;;13.70;100.00
56038;BME280;41907;47.848;9.000;2023-04-29T02:57:44;95556.25;;;13.66;100.00
56038;BME280;41907;47.848;9.000;2023-04-29T03:00:09;95547.91;;;13.68;100.00
56038;BME280;41907;47.848;9.000;2023-04-29T03:02:35;95560.84;;;13.66;100.00
56038;BME280;41907;47.848;9.000;2023-04-29T03:05:00;95558.03;;;13.62;100.00
56038;BME280;41907;47.848;9.000;2023-04-29T03:07:25;95558.34;;;13.61;100.00
56038;BME280;41907;47.848;9.000;2023-04-29T03:09:51;95560.13;;;13.57;100.00
56038;BME280;41907;47.848;9.000;2023-04-29T03:12:17;95561.56;;;13.54;100.00
56038;BME280;41907;47.848;9.000;2023-04-29T03:14:42;95557.78;;;13.55;100.00
56038;BME280;41907;47.848;9.000;2023-04-29T03:17:07;95548.97;;;13.55;100.00
56038;BME280;41907;47.848;9.000;2023-04-29T03:19:33;95543.94;;;13.53;100.00
56038;BME280;41907;47.848;9.000;2023-04-29T03:21:58;95552.75;;;13.54;100.00
56038;BME280;41907;47.848;9.000;2023-04-29T03:24:23;95555.09;;;13.55;100.00
56038;BME280;41907;47.848;9.000;2023-04-29T03:26:48;95551.97;;;13.53;100.00
56038;BME280;41907;47.848;9.000;2023-04-29T03:29:13;95550.41;;;13.52;100.00
56038;BME280;41907;47.848;9.000;2023-04-29T03:31:39;95552.88;;;13.57;100.00
56038;BME280;41907;47.848;9.000;2023-04-29T03:34:04;95550.63;;;13.59;100.00
56038;BME280;41907;47.848;9.000;2023-04-29T03:36:29;95553.78;;;13.61;100.00
56038;BME280;41907;47.848;9.000;2023-04-29T03:38:54;95537.69;;;13.61;100.00
56038;BME280;41907;47.848;9.000;2023-04-29T03:41:20;95548.22;;;13.66;100.00
56038;BME280;41907;47.848;9.000;2023-04-29T03:43:45;95538.16;;;13.63;100.00
56038;BME280;41907;47.848;9.000;2023-04-29T03:46:10;95537.50;;;13.66;100.00
56038;BME280;41907;47.848;9.000;2023-04-29T03:48:35;95545.22;;;13.68;100.00
56038;BME280;41907;47.848;9.000;2023-04-29T03:51:01;95541.94;;;13.62;100.00
56038;BME280;41907;47.848;9.000;2023-04-29T03:53:27;95543.66;;;13.67;100.00
56038;BME280;41907;47.848;9.000;2023-04-29T03:55:52;95538.28;;;13.67;100.00
56038;BME280;41907;47.848;9.000;2023-04-29T03:58:18;95535.25;;;13.68;100.00
56038;BME280;41907;47.848;9.000;2023-04-29T04:00:43;95539.72;;;13.64;100.00
56038;BME280;41907;47.848;9.000;2023-04-29T04:03:08;95529.34;;;13.63;100.00
56038;BME280;41907;47.848;9.000;2023-04-29T04:05:34;95538.94;;;13.64;100.00
56038;BME280;41907;47.848;9.000;2023-04-29T04:07:59;95534.38;;;13.64;100.00
56038;BME280;41907;47.848;9.000;2023-04-29T04:10:24;95526.97;;;13.61;100.00
56038;BME280;41907;47.848;9.000;2023-04-29T04:12:50;95530.78;;;13.60;100.00
56038;BME280;41907;47.848;9.000;2023-04-29T04:15:15;95534.47;;;13.56;100.00
56038;BME280;41907;47.848;9.000;2023-04-29T04:17:41;95526.41;;;13.56;100.00
56038;BME280;41907;47.848;9.000;2023-04-29T04:20:06;95544.59;;;13.50;100.00
56038;BME280;41907;47.848;9.000;2023-04-29T04:22:32;95540.78;;;13.51;100.00
56038;BME280;41907;47.848;9.000;2023-04-29T04:24:57;95541.47;;;13.48;100.00
56038;BME280;41907;47.848;9.000;2023-04-29T04:27:22;95540.69;;;13.48;100.00
56038;BME280;41907;47.848;9.000;2023-04-29T04:29:47;95544.25;;;13.52;100.00
56038;BME280;41907;47.848;9.000;2023-04-29T04:32:13;95546.28;;;13.55;100.00
56038;BME280;41907;47.848;9.000;2023-04-29T04:34:38;95551.00;;;13.58;100.00
56038;BME280;41907;47.848;9.000;2023-04-29T04:37:03;95558.25;;;13.57;100.00
56038;BME280;41907;47.848;9.000;2023-04-29T04:39:28;95556.22;;;13.54;100.00
56038;BME280;41907;47.848;9.000;2023-04-29T04:41:54;95561.44;;;13.51;100.00
56038;BME280;41907;47.848;9.000;2023-04-29T04:44:19;95568.25;;;13.48;100.00
56038;BME280;41907;47.848;9.000;2023-04-29T04:46:44;95563.78;;;13.52;100.00
56038;BME280;41907;47.848;9.000;2023-04-29T04:49:10;95566.94;;;13.54;100.00
56038;BME280;41907;47.848;9.000;2023-04-29T04:51:35;95565.50;;;13.57;100.00
56038;BME280;41907;47.848;9.000;2023-04-29T04:54:00;95575.75;;;13.55;100.00
56038;BME280;41907;47.848;9.000;2023-04-29T04:56:25;95578.44;;;13.55;100.00
56038;BME280;41907;47.848;9.000;2023-04-29T04:58:51;95582.44;;;13.49;100.00
56038;BME280;41907;47.848;9.000;2023-04-29T05:01:16;95574.06;;;13.50;100.00
56038;BME280;41907;47.848;9.000;2023-04-29T05:03:41;95583.56;;;13.48;100.00
56038;BME280;41907;47.848;9.000;2023-04-29T05:06:06;95586.16;;;13.56;100.00
56038;BME280;41907;47.848;9.000;2023-04-29T05:08:32;95578.13;;;13.68;100.00
56038;BME280;41907;47.848;9.000;2023-04-29T05:10:57;95579.97;;;13.76;100.00
56038;BME280;41907;47.848;9.000;2023-04-29T05:13:22;95589.34;;;13.83;100.00
56038;BME280;41907;47.848;9.000;2023-04-29T05:15:49;95592.38;;;13.81;100.00
56038;BME280;41907;47.848;9.000;2023-04-29T05:18:14;95592.16;;;13.86;100.00
56038;BME280;41907;47.848;9.000;2023-04-29T05:20:39;95599.75;;;13.84;100.00
56038;BME280;41907;47.848;9.000;2023-04-29T05:23:05;95602.53;;;13.88;100.00
56038;BME280;41907;47.848;9.000;2023-04-29T05:25:30;95597.53;;;13.98;100.00
56038;BME280;41907;47.848;9.000;2023-04-29T05:27:55;95601.13;;;14.02;100.00
56038;BME280;41907;47.848;9.000;2023-04-29T05:30:20;95605.94;;;14.09;100.00
56038;BME280;41907;47.848;9.000;2023-04-29T05:32:46;95604.84;;;14.10;100.00
56038;BME280;41907;47.848;9.000;2023-04-29T05:35:12;95611.66;;;14.20;100.00
56038;BME280;41907;47.848;9.000;2023-04-29T05:37:38;95613.13;;;14.29;100.00
56038;BME280;41907;47.848;9.000;2023-04-29T05:40:03;95615.16;;;14.32;100.00
56038;BME280;41907;47.848;9.000;2023-04-29T05:42:28;95607.53;;;14.34;100.00
56038;BME280;41907;47.848;9.000;2023-04-29T05:44:53;95609.72;;;14.41;100.00
56038;BME280;41907;47.848;9.000;2023-04-29T05:47:19;95610.06;;;14.51;100.00
56038;BME280;41907;47.848;9.000;2023-04-29T05:49:44;95619.34;;;14.54;100.00
56038;BME280;41907;47.848;9.000;2023-04-29T05:52:09;95616.44;;;14.59;100.00
56038;BME280;41907;47.848;9.000;2023-04-29T05:54:35;95615.00;;;14.62;100.00
56038;BME280;41907;47.848;9.000;2023-04-29T05:57:01;95618.78;;;14.61;100.00
56038;BME280;41907;47.848;9.000;2023-04-29T05:59:27;95622.69;;;14.75;100.00
56038;BME280;41907;47.848;9.000;2023-04-29T06:01:53;95627.72;;;14.77;100.00
56038;BME280;41907;47.848;9.000;2023-04-29T06:04:18;95634.34;;;14.79;100.00
56038;BME280;41907;47.848;9.000;2023-04-29T06:06:43;95635.00;;;14.88;100.00
56038;BME280;41907;47.848;9.000;2023-04-29T06:09:09;95631.53;;;14.88;100.00
56038;BME280;41907;47.848;9.000;2023-04-29T06:11:34;95635.88;;;14.93;100.00
56038;BME280;41907;47.848;9.000;2023-04-29T06:14:00;95631.53;;;14.88;100.00
56038;BME280;41907;47.848;9.000;2023-04-29T06:16:25;95629.06;;;14.95;100.00
56038;BME280;41907;47.848;9.000;2023-04-29T06:18:51;95634.56;;;14.99;100.00
56038;BME280;41907;47.848;9.000;2023-04-29T06:21:16;95635.44;;;15.03;100.00
56038;BME280;41907;47.848;9.000;2023-04-29T06:23:41;95632.59;;;15.36;100.00
56038;BME280;41907;47.848;9.000;2023-04-29T06:26:06;95635.91;;;15.45;100.00
56038;BME280;41907;47.848;9.000;2023-04-29T06:28:32;95638.69;;;15.48;100.00
56038;BME280;41907;47.848;9.000;2023-04-29T06:30:57;95634.69;;;15.42;100.00
56038;BME280;41907;47.848;9.000;2023-04-29T06:33:22;95650.03;;;15.42;100.00
56038;BME280;41907;47.848;9.000;2023-04-29T06:35:47;95646.28;;;15.71;100.00
56038;BME280;41907;47.848;9.000;2023-04-29T06:38:12;95650.56;;;15.87;100.00
56038;BME280;41907;47.848;9.000;2023-04-29T06:40:38;95646.09;;;15.91;100.00
56038;BME280;41907;47.848;9.000;2023-04-29T06:43:03;95650.38;;;15.80;100.00
56038;BME280;41907;47.848;9.000;2023-04-29T06:45:29;95661.81;;;15.77;100.00
56038;BME280;41907;47.848;9.000;2023-04-29T06:47:54;95657.63;;;15.64;100.00
56038;BME280;41907;47.848;9.000;2023-04-29T06:50:19;95659.53;;;15.63;100.00
56038;BME280;41907;47.848;9.000;2023-04-29T06:52:45;95667.00;;;15.70;100.00
56038;BME280;41907;47.848;9.000;2023-04-29T06:55:10;95653.56;;;16.14;100.00
56038;BME280;41907;47.848;9.000;2023-04-29T06:57:36;95656.09;;;18.93;100.00
56038;BME280;41907;47.848;9.000;2023-04-29T07:00:01;95656.56;;;18.99;97.16
56038;BME280;41907;47.848;9.000;2023-04-29T07:02:27;95653.81;;;20.08;92.34
56038;BME280;41907;47.848;9.000;2023-04-29T07:04:52;95656.97;;;19.80;88.68
56038;BME280;41907;47.848;9.000;2023-04-29T07:07:18;95665.19;;;20.24;87.76
56038;BME280;41907;47.848;9.000;2023-04-29T07:09:43;95658.13;;;19.83;88.49
56038;BME280;41907;47.848;9.000;2023-04-29T07:12:08;95660.94;;;23.31;74.75
56038;BME280;41907;47.848;9.000;2023-04-29T07:14:34;95664.44;;;22.75;71.47
56038;BME280;41907;47.848;9.000;2023-04-29T07:17:01;95669.50;;;23.08;68.09
56038;BME280;41907;47.848;9.000;2023-04-29T07:19:26;95670.22;;;22.55;69.92
56038;BME280;41907;47.848;9.000;2023-04-29T07:21:51;95665.31;;;25.44;58.18
56038;BME280;41907;47.848;9.000;2023-04-29T07:24:17;95667.75;;;27.21;48.68
56038;BME280;41907;47.848;9.000;2023-04-29T07:26:42;95665.44;;;25.71;51.46
56038;BME280;41907;47.848;9.000;2023-04-29T07:29:08;95683.09;;;23.15;59.68
56038;BME280;41907;47.848;9.000;2023-04-29T07:31:33;95683.66;;;21.99;68.30
56038;BME280;41907;47.848;9.000;2023-04-29T07:33:59;95673.41;;;21.12;71.36
56038;BME280;41907;47.848;9.000;2023-04-29T07:36:24;95674.69;;;20.41;74.83
56038;BME280;41907;47.848;9.000;2023-04-29T07:38:49;95683.31;;;20.94;76.27
56038;BME280;41907;47.848;9.000;2023-04-29T07:41:14;95680.38;;;24.63;61.09
56038;BME280;41907;47.848;9.000;2023-04-29T07:43:40;95681.34;;;26.74;50.17
56038;BME280;41907;47.848;9.000;2023-04-29T07:46:05;95673.28;;;27.40;47.20
56038;BME280;41907;47.848;9.000;2023-04-29T07:48:34;95677.22;;;27.39;45.90
56038;BME280;41907;47.848;9.000;2023-04-29T07:51:00;95678.72;;;26.06;49.08
56038;BME280;41907;47.848;9.000;2023-04-29T07:53:25;95685.75;;;26.68;49.14
56038;BME280;41907;47.848;9.000;2023-04-29T07:55:50;95681.16;;;25.97;50.49
56038;BME280;41907;47.848;9.000;2023-04-29T07:58:16;95687.16;;;24.30;55.07
56038;BME280;41907;47.848;9.000;2023-04-29T08:00:41;95683.81;;;23.87;58.02
56038;BME280;41907;47.848;9.000;2023-04-29T08:03:06;95680.38;;;25.97;54.41
56038;BME280;41907;47.848;9.000;2023-04-29T08:05:32;95682.06;;;27.55;48.01
56038;BME280;41907;47.848;9.000;2023-04-29T08:07:57;95681.25;;;27.98;44.40
56038;BME280;41907;47.848;9.000;2023-04-29T08:10:22;95682.63;;;28.85;42.94
56038;BME280;41907;47.848;9.000;2023-04-29T08:12:47;95679.19;;;29.30;41.37
56038;BME280;41907;47.848;9.000;2023-04-29T08:15:13;95674.78;;;29.93;39.76
56038;BME280;41907;47.848;9.000;2023-04-29T08:17:38;95676.91;;;30.31;38.07
56038;BME280;41907;47.848;9.000;2023-04-29T08:20:04;95679.66;;;29.73;39.59
56038;BME280;41907;47.848;9.000;2023-04-29T08:22:29;95683.13;;;28.60;41.83
56038;BME280;41907;47.848;9.000;2023-04-29T08:24:55;95685.66;;;27.02;44.08
56038;BME280;41907;47.848;9.000;2023-04-29T08:27:20;95680.66;;;26.06;47.23
56038;BME280;41907;47.848;9.000;2023-04-29T08:29:45;95674.69;;;26.75;46.37
56038;BME280;41907;47.848;9.000;2023-04-29T08:32:11;95679.03;;;27.46;44.70
56038;BME280;41907;47.848;9.000;2023-04-29T08:34:36;95687.50;;;24.42;52.33
56038;BME280;41907;47.848;9.000;2023-04-29T08:37:02;95686.50;;;24.77;49.99
56038;BME280;41907;47.848;9.000;2023-04-29T08:39:28;95674.13;;;23.61;53.40
56038;BME280;41907;47.848;9.000;2023-04-29T08:41:55;95667.34;;;24.08;55.75
56038;BME280;41907;47.848;9.000;2023-04-29T08:44:21;95667.09;;;23.70;56.94
56038;BME280;41907;47.848;9.000;2023-04-29T08:46:47;95666.31;;;23.70;56.83
56038;BME280;41907;47.848;9.000;2023-04-29T08:49:13;95674.94;;;23.33;53.27
56038;BME280;41907;47.848;9.000;2023-04-29T08:51:38;95679.16;;;22.52;56.75
56038;BME280;41907;47.848;9.000;2023-04-29T08:54:04;95676.44;;;22.45;56.27
56038;BME280;41907;47.848;9.000;2023-04-29T08:56:30;95669.25;;;21.95;58.99
56038;BME280;41907;47.848;9.000;2023-04-29T08:58:56;95669.16;;;21.80;58.94
56038;BME280;41907;47.848;9.000;2023-04-29T09:01:23;95655.44;;;21.48;59.80
56038;BME280;41907;47.848;9.000;2023-04-29T09:06:16;95661.66;;;22.46;58.14
56038;BME280;41907;47.848;9.000;2023-04-29T09:08:41;95667.16;;;22.75;57.18
56038;BME280;41907;47.848;9.000;2023-04-29T09:11:07;95664.00;;;22.58;57.44
56038;BME280;41907;47.848;9.000;2023-04-29T09:13:33;95661.19;;;22.19;59.77
56038;BME280;41907;47.848;9.000;2023-04-29T09:15:58;95664.63;;;22.02;58.74
56038;BME280;41907;47.848;9.000;2023-04-29T09:21:40;95656.97;;;20.91;65.56
56038;BME280;41907;47.848;9.000;2023-04-29T09:24:00;95653.09;;;22.37;61.37
56038;BME280;41907;47.848;9.000;2023-04-29T09:26:25;95649.66;;;20.99;62.60
56038;BME280;41907;47.848;9.000;2023-04-29T09:31:32;95651.81;;;20.75;64.99
56038;BME280;41907;47.848;9.000;2023-04-29T09:33:57;95642.84;;;20.71;59.03
56038;BME280;41907;47.848;9.000;2023-04-29T09:36:36;95641.84;;;21.45;59.50
56038;BME280;41907;47.848;9.000;2023-04-29T09:39:02;95641.75;;;22.03;56.01
56038;BME280;41907;47.848;9.000;2023-04-29T09:41:29;95644.88;;;22.09;55.35
56038;BME280;41907;47.848;9.000;2023-04-29T09:44:07;95647.97;;;22.04;55.91
56038;BME280;41907;47.848;9.000;2023-04-29T09:46:33;95651.72;;;21.78;57.59
56038;BME280;41907;47.848;9.000;2023-04-29T09:48:59;95644.72;;;21.77;58.73
56038;BME280;41907;47.848;9.000;2023-04-29T09:51:24;95639.81;;;21.28;58.60
56038;BME280;41907;47.848;9.000;2023-04-29T09:53:50;95640.59;;;21.28;59.78
56038;BME280;41907;47.848;9.000;2023-04-29T09:56:15;95638.16;;;20.65;63.62
56038;BME280;41907;47.848;9.000;2023-04-29T09:58:40;95639.16;;;20.94;62.17
56038;BME280;41907;47.848;9.000;2023-04-29T10:01:06;95632.41;;;21.25;59.25
56038;BME280;41907;47.848;9.000;2023-04-29T10:03:35;95629.78;;;21.35;61.38
56038;BME280;41907;47.848;9.000;2023-04-29T10:06:01;95639.00;;;21.24;62.84
56038;BME280;41907;47.848;9.000;2023-04-29T10:08:30;95635.50;;;21.20;61.45
56038;BME280;41907;47.848;9.000;2023-04-29T10:10:59;95631.41;;;20.48;62.45
56038;BME280;41907;47.848;9.000;2023-04-29T10:13:25;95630.38;;;20.23;64.22
56038;BME280;41907;47.848;9.000;2023-04-29T10:16:00;95626.06;;;20.18;65.29
56038;BME280;41907;47.848;9.000;2023-04-29T10:18:29;95629.94;;;20.17;66.90
56038;BME280;41907;47.848;9.000;2023-04-29T10:20:59;95631.66;;;19.65;68.04
56038;BME280;41907;47.848;9.000;2023-04-29T10:23:26;95628.34;;;19.79;70.36
56038;BME280;41907;47.848;9.000;2023-04-29T10:25:52;95628.06;;;19.88;71.79
56038;BME280;41907;47.848;9.000;2023-04-29T10:28:19;95632.34;;;19.92;74.29
56038;BME280;41907;47.848;9.000;2023-04-29T10:30:49;95629.69;;;19.96;70.73
56038;BME280;41907;47.848;9.000;2023-04-29T10:33:15;95621.81;;;19.84;68.18
56038;BME280;41907;47.848;9.000;2023-04-29T10:35:41;95623.13;;;19.97;71.79
56038;BME280;41907;47.848;9.000;2023-04-29T10:38:09;95624.50;;;19.84;70.28
56038;BME280;41907;47.848;9.000;2023-04-29T10:40:36;95617.66;;;19.90;68.88
56038;BME280;41907;47.848;9.000;2023-04-29T10:43:04;95605.88;;;20.12;68.77
56038;BME280;41907;47.848;9.000;2023-04-29T10:45:30;95611.41;;;19.86;70.94
56038;BME280;41907;47.848;9.000;2023-04-29T10:50:34;95604.31;;;20.08;68.25
56038;BME280;41907;47.848;9.000;2023-04-29T10:53:02;95612.50;;;20.15;63.57
56038;BME280;41907;47.848;9.000;2023-04-29T10:55:28;95613.34;;;20.22;66.38
56038;BME280;41907;47.848;9.000;2023-04-29T10:57:54;95599.66;;;20.08;65.48
56038;BME280;41907;47.848;9.000;2023-04-29T11:00:31;95596.47;;;19.99;67.16
56038;BME280;41907;47.848;9.000;2023-04-29T11:02:57;95593.50;;;20.11;63.75
56038;BME280;41907;47.848;9.000;2023-04-29T11:05:35;95592.50;;;20.30;66.17
56038;BME280;41907;47.848;9.000;2023-04-29T11:10:40;95586.94;;;21.07;59.14
56038;BME280;41907;47.848;9.000;2023-04-29T11:13:27;95579.25;;;21.13;56.73
56038;BME280;41907;47.848;9.000;2023-04-29T11:15:52;95584.28;;;21.14;56.20
56038;BME280;41907;47.848;9.000;2023-04-29T11:18:17;95576.25;;;21.29;56.87
56038;BME280;41907;47.848;9.000;2023-04-29T11:23:26;95579.19;;;21.78;57.27
56038;BME280;41907;47.848;9.000;2023-04-29T11:25:51;95579.56;;;21.77;55.77
56038;BME280;41907;47.848;9.000;2023-04-29T11:28:17;95574.47;;;21.58;56.17
56038;BME280;41907;47.848;9.000;2023-04-29T11:30:42;95573.56;;;21.29;56.69
56038;BME280;41907;47.848;9.000;2023-04-29T11:33:09;95571.84;;;21.06;59.80
56038;BME280;41907;47.848;9.000;2023-04-29T11:35:34;95571.31;;;20.35;61.57
56038;BME280;41907;47.848;9.000;2023-04-29T11:38:03;95584.59;;;20.48;62.71
56038;BME280;41907;47.848;9.000;2023-04-29T11:40:28;95583.34;;;20.38;65.33
56038;BME280;41907;47.848;9.000;2023-04-29T11:42:56;95587.06;;;20.26;66.15
56038;BME280;41907;47.848;9.000;2023-04-29T11:45:21;95591.66;;;20.19;65.65
56038;BME280;41907;47.848;9.000;2023-04-29T11:47:47;95590.53;;;20.23;67.66
56038;BME280;41907;47.848;9.000;2023-04-29T11:50:13;95584.81;;;20.76;68.69
56038;BME280;41907;47.848;9.000;2023-04-29T11:52:40;95582.69;;;21.06;64.91
56038;BME280;41907;47.848;9.000;2023-04-29T11:55:09;95582.75;;;21.17;61.71
56038;BME280;41907;47.848;9.000;2023-04-29T11:57:35;95584.16;;;21.59;63.05
56038;BME280;41907;47.848;9.000;2023-04-29T12:00:01;95585.38;;;21.68;59.96
56038;BME280;41907;47.848;9.000;2023-04-29T12:02:30;95586.06;;;21.54;56.81
56038;BME280;41907;47.848;9.000;2023-04-29T12:04:58;95589.59;;;21.62;57.83
56038;BME280;41907;47.848;9.000;2023-04-29T12:07:27;95589.41;;;22.27;57.89
56038;BME280;41907;47.848;9.000;2023-04-29T12:09:53;95592.53;;;22.30;53.87
56038;BME280;41907;47.848;9.000;2023-04-29T12:12:18;95593.72;;;22.36;55.52
56038;BME280;41907;47.848;9.000;2023-04-29T12:14:44;95590.19;;;22.21;52.45
56038;BME280;41907;47.848;9.000;2023-04-29T12:17:10;95591.72;;;22.18;52.80
56038;BME280;41907;47.848;9.000;2023-04-29T12:19:35;95592.97;;;22.46;53.27
56038;BME280;41907;47.848;9.000;2023-04-29T12:22:04;95598.31;;;22.10;53.41
56038;BME280;41907;47.848;9.000;2023-04-29T12:24:33;95594.44;;;22.18;52.77
56038;BME280;41907;47.848;9.000;2023-04-29T12:26:59;95591.38;;;22.23;54.51
56038;BME280;41907;47.848;9.000;2023-04-29T12:29:25;95598.19;;;21.78;53.04
56038;BME280;41907;47.848;9.000;2023-04-29T12:31:50;95591.53;;;21.65;52.98
56038;BME280;41907;47.848;9.000;2023-04-29T12:34:15;95585.75;;;21.70;52.17
56038;BME280;41907;47.848;9.000;2023-04-29T12:36:41;95589.78;;;21.25;52.53
56038;BME280;41907;47.848;9.000;2023-04-29T12:39:06;95579.44;;;20.83;55.82
56038;BME280;41907;47.848;9.000;2023-04-29T12:41:38;95579.41;;;21.38;52.17
56038;BME280;41907;47.848;9.000;2023-04-29T12:44:04;95584.28;;;21.11;53.34
56038;BME280;41907;47.848;9.000;2023-04-29T12:46:33;95591.47;;;20.89;54.53
56038;BME280;41907;47.848;9.000;2023-04-29T12:49:00;95590.94;;;21.24;54.64
56038;BME280;41907;47.848;9.000;2023-04-29T12:51:26;95580.28;;;21.56;54.90
56038;BME280;41907;47.848;9.000;2023-04-29T12:53:51;95588.06;;;21.72;55.09
56038;BME280;41907;47.848;9.000;2023-04-29T12:56:16;95590.38;;;21.66;55.01
56038;BME280;41907;47.848;9.000;2023-04-29T12:58:42;95592.81;;;21.16;54.89
56038;BME280;41907;47.848;9.000;2023-04-29T13:01:07;95604.91;;;21.26;56.20
56038;BME280;41907;47.848;9.000;2023-04-29T13:03:32;95600.81;;;21.57;53.98
56038;BME280;41907;47.848;9.000;2023-04-29T13:05:58;95601.09;;;20.76;54.76
56038;BME280;41907;47.848;9.000;2023-04-29T13:08:23;95604.53;;;20.76;54.19
56038;BME280;41907;47.848;9.000;2023-04-29T13:10:48;95603.94;;;20.97;56.79
56038;BME280;41907;47.848;9.000;2023-04-29T13:13:13;95610.25;;;20.24;59.12
56038;BME280;41907;47.848;9.000;2023-04-29T13:15:39;95606.59;;;20.42;60.02